»·PEaware :: ASA4212 KSFO-KPDX

ASA4212 :: KSFO-KPDX

FLIGHT INFORMATION

Flight Status: Arrived
Operator:
Alaska Airlines
More flights by this operator :: More flights under this callsign
Pilot: Joe C. (19058)
Aircraft: BOEING 737-800
(B738)
More flights by this aircraft type
Origin: KSFO San Francisco Intl
United States
Destination: KPDX Portland Intl
United States
More flights between these airports :: More routes between these airports
Route: +TRUKN2 GRTFL MACHU TMBRS2
File this flight plan on PilotEdge
Remarks:
Altitude:
(Current/Filed)
36,000ft
Speed:
(Current/Filed)
456kts
Departed: 30-Sep-18 01:58 PM
Arrived: 30-Sep-18 03:22 PM
Distance/Time
Traveled:
478nm/1:24
Distance/Time
To Go:
Arrived

Flight Plot

Page will automatically refresh every two minutes.


Map Options




Map Legend


Flown Route
Filed Route
Departure Airport
Arrival Airport
Navaid (VOR, NDB)
Fix

Horizontal Profiles

Position Reports

Time Latitude Longitude Heading Altitude Ground
Speed
30-Sep-18 13:43 37.616478 -122.381316 9 30ft 0kts
30-Sep-18 13:44 37.616478 -122.381316 9 30ft 0kts
30-Sep-18 13:45 37.616478 -122.381316 9 30ft 0kts
30-Sep-18 13:46 37.616478 -122.381316 9 30ft 0kts
30-Sep-18 13:47 37.616478 -122.381316 9 30ft 0kts
30-Sep-18 13:48 37.616478 -122.381316 9 30ft 0kts
30-Sep-18 13:49 37.616478 -122.381316 9 30ft 0kts
30-Sep-18 13:50 37.616478 -122.381316 9 30ft 0kts
30-Sep-18 13:51 37.616478 -122.381316 9 30ft 0kts
30-Sep-18 13:52 37.616457 -122.381321 10 31ft 1kts
30-Sep-18 13:53 37.616200 -122.381809 113 31ft 0kts
30-Sep-18 13:54 37.616294 -122.382012 117 31ft 0kts
30-Sep-18 13:55 37.616293 -122.382011 117 31ft 0kts
30-Sep-18 13:56 37.616293 -122.382011 117 31ft 0kts
30-Sep-18 13:57 37.615891 -122.381035 118 30ft 10kts
30-Sep-18 13:58 37.610594 -122.383838 206 31ft 26kts
30-Sep-18 13:59 37.609061 -122.383537 108 31ft 0kts
30-Sep-18 14:00 37.610021 -122.381527 27 30ft 45kts
30-Sep-18 14:01 37.641172 -122.353573 51 1303ft 180kts
30-Sep-18 14:02 37.678361 -122.288460 53 3413ft 262kts
30-Sep-18 14:03 37.727899 -122.219275 17 6648ft 279kts
30-Sep-18 14:04 37.805917 -122.215965 356 9719ft 292kts
30-Sep-18 14:05 37.891648 -122.218432 357 11802ft 330kts
30-Sep-18 14:06 37.985502 -122.221024 356 14299ft 346kts
30-Sep-18 14:07 38.083355 -122.223706 355 16636ft 359kts
30-Sep-18 14:08 38.184326 -122.226527 356 18616ft 377kts
30-Sep-18 14:09 38.290275 -122.229417 356 20673ft 389kts
30-Sep-18 14:10 38.399841 -122.235009 352 22554ft 401kts
30-Sep-18 14:11 38.512369 -122.246960 351 24283ft 411kts
30-Sep-18 14:12 38.627527 -122.259161 351 25863ft 422kts
30-Sep-18 14:13 38.745280 -122.271610 350 27315ft 431kts
30-Sep-18 14:14 38.865365 -122.284309 350 28644ft 439kts
30-Sep-18 14:15 38.986384 -122.297063 350 30437ft 431kts
30-Sep-18 14:16 39.102907 -122.309364 350 32031ft 423kts
30-Sep-18 14:17 39.218915 -122.321658 350 33252ft 419kts
30-Sep-18 14:18 39.334584 -122.333973 350 34344ft 416kts
30-Sep-18 14:19 39.449659 -122.346278 349 35282ft 415kts
30-Sep-18 14:20 39.564029 -122.358557 350 35988ft 417kts
30-Sep-18 14:21 39.681930 -122.371378 350 35998ft 438kts
30-Sep-18 14:22 39.805903 -122.384845 350 35993ft 457kts
30-Sep-18 14:23 39.931857 -122.398478 350 35991ft 455kts
30-Sep-18 14:24 40.057953 -122.412175 350 35989ft 455kts
30-Sep-18 14:25 40.183787 -122.425916 350 35987ft 455kts
30-Sep-18 14:26 40.309595 -122.439666 350 35988ft 456kts
30-Sep-18 14:27 40.435328 -122.453470 350 35988ft 455kts
30-Sep-18 14:28 40.540086 -122.465008 350 35987ft 456kts
30-Sep-18 14:29 40.687146 -122.481276 350 35985ft 455kts
30-Sep-18 14:30 40.812827 -122.495249 350 35984ft 456kts
30-Sep-18 14:31 40.939035 -122.509314 350 35991ft 455kts
30-Sep-18 14:32 41.062415 -122.523087 352 35988ft 434kts
30-Sep-18 14:33 41.160473 -122.534135 353 35996ft 435kts
30-Sep-18 14:34 41.300904 -122.549918 353 36000ft 435kts
30-Sep-18 14:35 41.401176 -122.561227 353 35999ft 435kts
30-Sep-18 14:36 41.521531 -122.574838 353 35998ft 435kts
30-Sep-18 14:37 41.642091 -122.583478 355 35998ft 435kts
30-Sep-18 14:38 41.763025 -122.591280 355 35997ft 436kts
30-Sep-18 14:39 41.903835 -122.600416 355 35997ft 435kts
30-Sep-18 14:40 42.004318 -122.606969 355 35997ft 436kts
30-Sep-18 14:41 42.124633 -122.614848 355 35995ft 436kts
30-Sep-18 14:42 42.245429 -122.622816 355 35975ft 436kts
30-Sep-18 14:43 42.365999 -122.630820 355 35972ft 435kts
30-Sep-18 14:44 42.486747 -122.638869 355 35971ft 436kts
30-Sep-18 14:45 42.607482 -122.646951 355 35970ft 435kts
30-Sep-18 14:46 42.728326 -122.655099 355 35972ft 435kts
30-Sep-18 14:47 42.848642 -122.663273 355 35972ft 435kts
30-Sep-18 14:48 42.969239 -122.671478 354 35969ft 430kts
30-Sep-18 14:49 43.087231 -122.679539 354 35967ft 424kts
30-Sep-18 14:50 43.204842 -122.687643 354 35966ft 425kts
30-Sep-18 14:51 43.322459 -122.695775 354 35965ft 425kts
30-Sep-18 14:52 43.440377 -122.703942 354 35964ft 425kts
30-Sep-18 14:53 43.558212 -122.712104 354 35963ft 425kts
30-Sep-18 14:54 43.675977 -122.720282 354 35955ft 425kts
30-Sep-18 14:55 43.793600 -122.728481 354 35953ft 425kts
30-Sep-18 14:56 43.910375 -122.736629 354 34239ft 422kts
30-Sep-18 14:57 44.028348 -122.744899 354 30893ft 429kts
30-Sep-18 14:58 44.144833 -122.753006 353 28095ft 410kts
30-Sep-18 14:59 44.255977 -122.744158 0 27813ft 415kts
30-Sep-18 15:00 44.370107 -122.732550 0 25525ft 399kts
30-Sep-18 15:01 44.481333 -122.721343 0 23171ft 397kts
30-Sep-18 15:02 44.586353 -122.710687 0 20998ft 371kts
30-Sep-18 15:03 44.690413 -122.700192 1 18871ft 375kts
30-Sep-18 15:04 44.793098 -122.689774 1 16848ft 369kts
30-Sep-18 15:05 44.893819 -122.679553 1 14863ft 352kts
30-Sep-18 15:06 44.985690 -122.670148 1 12874ft 309kts
30-Sep-18 15:07 45.072022 -122.661295 1 11006ft 305kts
30-Sep-18 15:08 45.153144 -122.652933 0 10330ft 289kts
30-Sep-18 15:09 45.232631 -122.644817 1 9271ft 290kts
30-Sep-18 15:10 45.306422 -122.671769 335 8381ft 266kts
30-Sep-18 15:11 45.361197 -122.702360 338 7756ft 286kts
30-Sep-18 15:12 45.435132 -122.743301 337 6656ft 288kts
30-Sep-18 15:13 45.504403 -122.781619 337 5419ft 236kts
30-Sep-18 15:14 45.565341 -122.815400 337 4993ft 237kts
30-Sep-18 15:15 45.622731 -122.844969 283 4587ft 213kts
30-Sep-18 15:16 45.631073 -122.930971 279 4994ft 228kts
30-Sep-18 15:17 45.676182 -122.992797 352 4002ft 227kts
30-Sep-18 15:18 45.717882 -122.941691 107 3996ft 217kts
30-Sep-18 15:19 45.689620 -122.865192 120 3830ft 222kts
30-Sep-18 15:20 45.660488 -122.789897 119 2702ft 212kts
30-Sep-18 15:21 45.637276 -122.729862 119 1706ft 140kts
30-Sep-18 15:22 45.618662 -122.681914 119 993ft 137kts
30-Sep-18 15:23 45.600247 -122.634807 117 275ft 137kts
30-Sep-18 15:24 45.589409 -122.604668 58 23ft 14kts

Navigation Log

Ident Type
1. KSFO Airport
2. KPDX Airport